Perth, Australia
Current Conditions -  °F | °C
As of 4:00 PM on Monday 24 Nov 2014 (Local Time) from YPPH Reporting Station
Clear Clear  
Wind Chill: 77°   Ceiling: Unl
Heat Index: 78°   Visibility: 6mi
Dew Point: 48°   Wind: 18mph
Humidity: 36%   Direction: 230°SW
Pressure: 30.03"   Gusts: NA
Location:  31.96°S, 115.86°E
Report Text: YPPH 240800Z 23016KT CAVOK 25/09 Q1017
Loading
Personal Weather Stations






























Interactive Weather Map New forecast layout! Learn more

10-Day Weather Forecast

Advertisements
Track Severe Weather on mobile